createdAt,value
2023-04-27T00:03:40.137Z,99572.09
2023-04-27T00:09:42.159Z,99577.38
2023-04-27T00:15:45.401Z,99582.94
2023-04-27T00:21:47.272Z,99581.09
2023-04-27T00:27:49.238Z,99574.88
2023-04-27T00:33:51.205Z,99574.31
2023-04-27T00:39:53.070Z,99577.53
2023-04-27T00:45:55.124Z,99570.16
2023-04-27T00:51:57.078Z,99582.81
2023-04-27T00:57:59.057Z,99582.66
2023-04-27T01:04:01.866Z,99592.09
2023-04-27T01:10:05.944Z,99589.63
2023-04-27T01:16:08.503Z,99585.31
2023-04-27T01:22:10.424Z,99592.41
2023-04-27T01:28:12.601Z,99589.06
2023-04-27T01:34:14.504Z,99591.00
2023-04-27T01:40:17.696Z,99598.53
2023-04-27T01:46:19.655Z,99599.84
2023-04-27T01:52:21.588Z,99609.97
2023-04-27T01:58:23.514Z,99612.97
2023-04-27T02:04:25.925Z,99615.72
2023-04-27T02:10:27.927Z,99632.91
2023-04-27T02:16:29.950Z,99635.31
2023-04-27T02:22:31.839Z,99636.72
2023-04-27T02:28:33.776Z,99642.81
2023-04-27T02:34:36.203Z,99645.06
2023-04-27T02:40:38.247Z,99649.50
2023-04-27T02:46:40.209Z,99653.84
2023-04-27T02:52:42.171Z,99661.78
2023-04-27T02:58:44.851Z,99662.50
2023-04-27T03:04:47.299Z,99659.84
2023-04-27T03:10:49.227Z,99654.41
2023-04-27T03:16:51.178Z,99664.16
2023-04-27T03:22:53.188Z,99655.25
2023-04-27T03:28:55.090Z,99655.66
2023-04-27T03:34:57.090Z,99663.31
2023-04-27T03:40:59.043Z,99656.78
2023-04-27T03:47:01.656Z,99662.50
2023-04-27T03:53:03.884Z,99662.75
2023-04-27T03:59:05.880Z,99662.59
2023-04-27T04:05:08.898Z,99667.06
2023-04-27T04:11:10.957Z,99659.50
2023-04-27T04:17:12.825Z,99657.69
2023-04-27T04:23:14.714Z,99668.34
2023-04-27T04:29:16.877Z,99670.53
2023-04-27T04:35:19.772Z,99667.19
2023-04-27T04:41:21.688Z,99669.50
2023-04-27T04:47:23.610Z,99674.00
2023-04-27T04:53:26.177Z,99666.97
2023-04-27T04:59:29.391Z,99668.09
2023-04-27T05:05:32.179Z,99687.22
2023-04-27T05:11:34.098Z,99687.16
2023-04-27T05:17:36.138Z,99700.75
2023-04-27T05:23:38.026Z,99710.66
2023-04-27T05:29:39.912Z,99719.22
2023-04-27T05:35:41.840Z,99726.16
2023-04-27T05:41:43.715Z,99733.47
2023-04-27T05:47:45.926Z,99741.78
2023-04-27T05:53:47.888Z,99729.75
2023-04-27T05:59:49.771Z,99739.97
2023-04-27T06:06:00.354Z,99742.28
2023-04-27T06:12:04.335Z,99738.13
2023-04-27T06:18:06.262Z,99754.97
2023-04-27T06:24:08.236Z,99764.19
2023-04-27T06:30:10.939Z,99756.63
2023-04-27T06:36:12.876Z,99769.31
2023-04-27T06:42:14.828Z,99769.44
2023-04-27T06:48:17.164Z,99771.75
2023-04-27T06:54:19.624Z,99774.06
2023-04-27T07:00:21.985Z,99774.31
2023-04-27T07:06:25.590Z,99762.59
2023-04-27T07:12:27.891Z,99765.50
2023-04-27T07:18:29.775Z,99764.97
2023-04-27T07:24:31.664Z,99775.38
2023-04-27T07:30:36.409Z,99775.66
2023-04-27T07:36:38.565Z,99774.56
2023-04-27T07:42:42.035Z,99762.59
2023-04-27T07:48:44.942Z,99776.19
2023-04-27T07:54:46.897Z,99783.66
2023-04-27T08:00:48.780Z,99780.69
2023-04-27T08:06:51.386Z,99782.69
2023-04-27T08:12:53.567Z,99779.03
2023-04-27T08:18:55.726Z,99771.00
2023-04-27T08:24:57.653Z,99775.75
2023-04-27T08:30:59.871Z,99773.53
2023-04-27T08:37:03.298Z,99762.13
2023-04-27T08:43:05.195Z,99761.78
2023-04-27T08:49:08.010Z,99760.00
2023-04-27T08:55:10.162Z,99759.34
2023-04-27T09:01:12.208Z,99767.28
2023-04-27T09:07:17.681Z,99755.25
2023-04-27T09:13:19.582Z,99762.38
2023-04-27T09:19:29.275Z,99765.25
2023-04-27T09:25:33.400Z,99761.72
2023-04-27T09:31:36.106Z,99755.53
2023-04-27T09:37:38.112Z,99756.56
2023-04-27T09:43:41.376Z,99747.56
2023-04-27T09:49:43.376Z,99752.75
2023-04-27T09:55:59.732Z,99740.47
2023-04-27T10:02:17.158Z,99741.56
2023-04-27T10:08:25.503Z,99742.59
2023-04-27T10:14:29.072Z,99741.03
2023-04-27T10:20:36.073Z,99741.69
2023-04-27T10:26:48.258Z,99741.16
2023-04-27T10:33:05.166Z,99730.38
2023-04-27T10:39:18.450Z,99730.38
2023-04-27T10:45:31.122Z,99735.44
2023-04-27T10:51:33.858Z,99730.63
2023-04-27T10:57:45.116Z,99731.16
2023-04-27T11:03:59.325Z,99724.75
2023-04-27T11:10:01.262Z,99731.59
2023-04-27T11:16:05.359Z,99727.41
2023-04-27T11:22:07.654Z,99729.22
2023-04-27T11:28:19.174Z,99719.44
2023-04-27T11:34:23.944Z,99718.88
2023-04-27T11:40:27.178Z,99714.97
2023-04-27T11:46:29.194Z,99714.25
2023-04-27T11:52:32.840Z,99704.66
2023-04-27T11:58:36.270Z,99694.97
2023-04-27T12:04:38.432Z,99692.03
2023-04-27T12:10:41.790Z,99693.97
2023-04-27T12:16:43.738Z,99693.03
2023-04-27T12:22:45.675Z,99678.38
2023-04-27T12:28:47.608Z,99671.47
2023-04-27T12:34:49.483Z,99673.41
2023-04-27T12:40:51.460Z,99684.06
2023-04-27T12:46:53.455Z,99676.59
2023-04-27T12:52:55.462Z,99665.28
2023-04-27T12:58:57.767Z,99672.88
2023-04-27T13:04:59.777Z,99663.06
2023-04-27T13:11:01.809Z,99670.19
2023-04-27T13:17:04.254Z,99672.78
2023-04-27T13:23:06.671Z,99673.34
2023-04-27T13:29:08.603Z,99670.38
2023-04-27T13:35:10.689Z,99666.06
2023-04-27T13:41:12.674Z,99662.22
2023-04-27T13:47:14.687Z,99661.91
2023-04-27T13:53:17.074Z,99650.97
2023-04-27T13:59:19.064Z,99648.94
2023-04-27T14:05:21.069Z,99647.91
2023-04-27T14:11:23.392Z,99645.75
2023-04-27T14:17:25.653Z,99643.16
2023-04-27T14:23:27.595Z,99638.47
2023-04-27T14:29:29.482Z,99626.81
2023-04-27T14:35:35.073Z,99624.13
2023-04-27T14:41:37.491Z,99630.50
2023-04-27T14:47:39.521Z,99617.50
2023-04-27T14:53:41.489Z,99618.56
2023-04-27T14:59:44.392Z,99615.00
2023-04-27T15:05:46.623Z,99619.97
2023-04-27T15:11:48.530Z,99596.06
2023-04-27T15:17:50.590Z,99588.66
2023-04-27T15:23:52.506Z,99576.09
2023-04-27T15:29:55.281Z,99569.94
2023-04-27T15:35:58.985Z,99572.88
2023-04-27T15:42:01.457Z,99575.19
2023-04-27T15:48:03.781Z,99565.88
2023-04-27T15:54:05.893Z,99566.97
2023-04-27T16:00:12.036Z,99573.03
2023-04-27T16:06:13.939Z,99556.03
2023-04-27T16:12:15.872Z,99550.22
2023-04-27T16:18:17.818Z,99550.31
2023-04-27T16:24:19.824Z,99547.59
2023-04-27T16:30:23.615Z,99542.91
2023-04-27T16:36:25.549Z,99531.50
2023-04-27T16:42:27.469Z,99523.25
2023-04-27T16:48:30.220Z,99524.16
2023-04-27T16:54:32.116Z,99526.16
2023-04-27T17:00:34.142Z,99522.81
2023-04-27T17:06:36.202Z,99523.09
2023-04-27T17:12:38.256Z,99515.91
2023-04-27T17:18:40.625Z,99521.25
2023-04-27T17:24:42.581Z,99516.41
2023-04-27T17:30:44.504Z,99501.47
2023-04-27T17:36:46.540Z,99491.53
2023-04-27T17:42:49.453Z,99491.69
2023-04-27T17:48:51.562Z,99490.31
2023-04-27T17:54:53.503Z,99478.00
2023-04-27T18:00:55.634Z,99472.63
2023-04-27T18:06:57.608Z,99471.84
2023-04-27T18:12:59.777Z,99471.75
2023-04-27T18:19:01.723Z,99478.13
2023-04-27T18:25:04.064Z,99459.63
2023-04-27T18:31:17.582Z,99463.84
2023-04-27T18:37:19.645Z,99467.81
2023-04-27T18:43:21.564Z,99463.81
2023-04-27T18:49:23.610Z,99459.28
2023-04-27T18:55:25.541Z,99461.56
2023-04-27T19:01:31.592Z,99465.91
2023-04-27T19:07:33.762Z,99468.41
2023-04-27T19:13:35.772Z,99462.19
2023-04-27T19:19:37.684Z,99458.97
2023-04-27T19:25:40.416Z,99466.75
2023-04-27T19:31:42.384Z,99465.25
2023-04-27T19:37:44.339Z,99466.44
2023-04-27T19:43:46.210Z,99464.22
2023-04-27T19:49:48.118Z,99464.63
2023-04-27T19:55:50.095Z,99455.94
2023-04-27T20:01:52.334Z,99463.13
2023-04-27T20:07:54.305Z,99471.41
2023-04-27T20:13:56.187Z,99468.81
2023-04-27T20:19:58.070Z,99472.09
2023-04-27T20:26:00.134Z,99471.84
2023-04-27T20:32:02.347Z,99476.88
2023-04-27T20:38:04.466Z,99467.06
2023-04-27T20:44:07.424Z,99470.25
2023-04-27T20:50:09.696Z,99472.66
2023-04-27T20:56:11.979Z,99464.72
2023-04-27T21:02:15.097Z,99454.88
2023-04-27T21:08:17.369Z,99447.94
2023-04-27T21:14:19.340Z,99455.88
2023-04-27T21:20:21.390Z,99464.16
2023-04-27T21:26:23.296Z,99453.06
2023-04-27T21:32:25.176Z,99441.25
2023-04-27T21:38:27.112Z,99434.75
2023-04-27T21:44:29.016Z,99428.47
2023-04-27T21:50:31.109Z,99426.22
2023-04-27T21:56:33.010Z,99421.25
2023-04-27T22:02:35.037Z,99418.59
2023-04-27T22:08:37.180Z,99412.19
2023-04-27T22:14:39.065Z,99425.28
2023-04-27T22:20:42.338Z,99407.94
2023-04-27T22:26:44.379Z,99393.88
2023-04-27T22:32:46.594Z,99397.75
2023-04-27T22:38:50.749Z,99397.75
2023-04-27T22:44:52.672Z,99392.69
2023-04-27T22:50:54.551Z,99387.88
2023-04-27T22:56:57.370Z,99379.47
2023-04-27T23:02:59.602Z,99373.00
2023-04-27T23:09:03.080Z,99362.88
2023-04-27T23:15:05.685Z,99350.75
2023-04-27T23:21:07.610Z,99343.94
2023-04-27T23:27:09.515Z,99335.50
2023-04-27T23:33:11.381Z,99333.16
2023-04-27T23:39:13.255Z,99325.84
2023-04-27T23:45:15.286Z,99313.66
2023-04-27T23:51:17.360Z,99307.81
2023-04-27T23:57:19.245Z,99301.66
